createdAt,value
2022-08-18T00:01:03.258Z,36.03
2022-08-18T00:04:22.827Z,36.88
2022-08-18T00:07:35.159Z,36.38
2022-08-18T00:10:43.042Z,35.10
2022-08-18T00:13:47.987Z,35.67
2022-08-18T00:16:57.215Z,38.90
2022-08-18T00:20:02.558Z,38.67
2022-08-18T00:23:07.538Z,37.53
2022-08-18T00:26:12.474Z,44.03
2022-08-18T00:29:17.407Z,36.25
2022-08-18T00:32:27.686Z,38.67
2022-08-18T00:35:34.882Z,38.60
2022-08-18T00:38:40.279Z,44.53
2022-08-18T00:41:45.689Z,44.03
2022-08-18T00:44:50.618Z,46.25
2022-08-18T00:47:59.653Z,40.25
2022-08-18T00:51:10.918Z,47.63
2022-08-18T00:54:21.279Z,40.13
2022-08-18T00:57:27.978Z,44.80
2022-08-18T01:00:33.933Z,48.10
2022-08-18T01:03:42.826Z,45.13
2022-08-18T01:06:52.102Z,39.85
2022-08-18T01:09:59.586Z,46.83
2022-08-18T01:13:04.818Z,46.42
2022-08-18T01:16:22.607Z,43.97
2022-08-18T01:19:43.444Z,40.88
2022-08-18T01:23:04.663Z,45.42
2022-08-18T01:26:09.380Z,47.95
2022-08-18T01:29:19.215Z,44.03
2022-08-18T01:32:28.193Z,44.80
2022-08-18T01:35:41.559Z,48.50
2022-08-18T01:38:52.218Z,45.17
2022-08-18T01:41:57.228Z,43.72
2022-08-18T01:45:03.851Z,43.97
2022-08-18T01:48:09.653Z,47.60
2022-08-18T01:51:15.171Z,48.40
2022-08-18T01:54:22.713Z,45.08
2022-08-18T01:57:28.143Z,45.30
2022-08-18T02:00:33.169Z,46.22
2022-08-18T02:03:41.962Z,47.28
2022-08-18T02:06:48.007Z,47.38
2022-08-18T02:09:55.652Z,42.65
2022-08-18T02:13:04.218Z,39.92
2022-08-18T02:16:10.275Z,43.88
2022-08-18T02:19:15.341Z,39.70
2022-08-18T02:22:23.054Z,42.63
2022-08-18T02:25:30.579Z,45.60
2022-08-18T02:28:35.542Z,46.15
2022-08-18T02:31:40.452Z,43.75
2022-08-18T02:34:45.397Z,52.13
2022-08-18T02:37:50.584Z,44.28
2022-08-18T02:41:03.882Z,51.90
2022-08-18T02:44:09.874Z,45.50
2022-08-18T02:47:14.894Z,46.63
2022-08-18T02:50:20.370Z,41.30
2022-08-18T02:53:25.443Z,50.55
2022-08-18T02:56:41.230Z,53.33
2022-08-18T02:59:47.417Z,47.78
2022-08-18T03:02:54.671Z,45.75
2022-08-18T03:05:59.618Z,49.85
2022-08-18T03:09:04.987Z,52.35
2022-08-18T03:12:13.528Z,42.75
2022-08-18T03:15:18.673Z,47.50
2022-08-18T03:18:23.853Z,47.75
2022-08-18T03:21:31.325Z,50.28
2022-08-18T03:24:37.443Z,53.22
2022-08-18T03:27:45.028Z,48.40
2022-08-18T03:30:49.976Z,49.17
2022-08-18T03:33:57.119Z,50.05
2022-08-18T03:37:05.643Z,43.92
2022-08-18T03:40:12.444Z,49.05
2022-08-18T03:43:23.746Z,48.78
2022-08-18T03:46:46.171Z,47.03
2022-08-18T03:49:51.550Z,44.90
2022-08-18T03:52:59.542Z,44.63
2022-08-18T03:56:05.443Z,48.53
2022-08-18T03:59:18.141Z,37.80
2022-08-18T04:02:23.761Z,37.88
2022-08-18T04:05:29.290Z,41.50
2022-08-18T04:08:34.259Z,37.95
2022-08-18T04:11:43.327Z,41.05
2022-08-18T04:14:53.560Z,38.90
2022-08-18T04:18:04.487Z,36.67
2022-08-18T04:21:15.053Z,43.05
2022-08-18T04:24:20.011Z,40.92
2022-08-18T04:27:25.174Z,45.70
2022-08-18T04:30:32.848Z,42.33
2022-08-18T04:33:37.887Z,37.78
2022-08-18T04:36:45.753Z,40.05
2022-08-18T04:39:51.509Z,45.67
2022-08-18T04:42:56.521Z,39.63
2022-08-18T04:46:04.457Z,37.22
2022-08-18T04:49:10.699Z,38.00
2022-08-18T04:52:39.258Z,35.03
2022-08-18T04:55:51.773Z,40.47
2022-08-18T04:58:57.654Z,44.42
2022-08-18T05:02:11.522Z,41.05
2022-08-18T05:05:19.716Z,43.30
2022-08-18T05:08:25.193Z,42.03
2022-08-18T05:11:33.425Z,49.75
2022-08-18T05:14:38.494Z,47.03
2022-08-18T05:17:47.607Z,48.47
2022-08-18T05:20:58.514Z,47.85
2022-08-18T05:24:07.147Z,45.60
2022-08-18T05:27:13.126Z,45.63
2022-08-18T05:30:18.086Z,46.55
2022-08-18T05:33:26.056Z,41.10
2022-08-18T05:36:48.457Z,45.92
2022-08-18T05:40:00.307Z,53.88
2022-08-18T05:43:07.429Z,45.45
2022-08-18T05:46:13.726Z,46.63
2022-08-18T05:49:23.466Z,41.20
2022-08-18T05:52:35.995Z,45.60
2022-08-18T05:55:57.584Z,36.28
2022-08-18T05:59:04.665Z,39.10
2022-08-18T06:02:14.122Z,36.78
2022-08-18T06:05:31.033Z,37.25
2022-08-18T06:08:41.633Z,35.85
2022-08-18T06:11:47.332Z,37.65
2022-08-18T06:14:52.646Z,37.95
2022-08-18T06:18:38.276Z,41.83
2022-08-18T06:21:51.991Z,33.20
2022-08-18T06:25:06.186Z,34.25
2022-08-18T06:28:15.879Z,34.40
2022-08-18T06:31:29.339Z,32.08
2022-08-18T06:34:45.236Z,32.22
2022-08-18T06:38:14.314Z,25.17
2022-08-18T06:41:38.132Z,30.80
2022-08-18T06:44:51.718Z,22.23
2022-08-18T06:48:03.342Z,25.02
2022-08-18T06:51:10.899Z,25.35
2022-08-18T06:54:32.909Z,26.60
2022-08-18T06:57:40.344Z,26.33
2022-08-18T07:00:57.027Z,24.02
2022-08-18T07:04:02.021Z,30.23
2022-08-18T07:07:22.231Z,31.75
2022-08-18T07:10:36.362Z,29.20
2022-08-18T07:13:44.462Z,32.20
2022-08-18T07:17:04.873Z,28.88
2022-08-18T07:20:20.482Z,26.35
2022-08-18T07:23:31.618Z,22.88
2022-08-18T07:27:03.018Z,24.10
2022-08-18T07:30:15.644Z,25.88
2022-08-18T07:33:25.421Z,27.48
2022-08-18T07:36:37.641Z,24.65
2022-08-18T07:39:49.642Z,23.80
2022-08-18T07:43:02.580Z,23.73
2022-08-18T07:46:13.021Z,24.92
2022-08-18T07:49:24.028Z,21.08
2022-08-18T07:52:36.547Z,19.98
2022-08-18T07:55:54.949Z,17.77
2022-08-18T07:59:07.260Z,21.23
2022-08-18T08:02:32.101Z,17.80
2022-08-18T08:05:45.587Z,21.13
2022-08-18T08:09:01.703Z,18.08
2022-08-18T08:12:18.168Z,13.48
2022-08-18T08:15:38.662Z,20.38
2022-08-18T08:18:51.420Z,21.90
2022-08-18T08:22:03.587Z,18.23
2022-08-18T08:25:42.736Z,22.67
2022-08-18T08:28:55.592Z,13.68
2022-08-18T08:32:06.701Z,21.30
2022-08-18T08:35:16.232Z,17.58
2022-08-18T08:38:47.835Z,15.65
2022-08-18T08:42:00.390Z,16.27
2022-08-18T08:45:26.784Z,12.80
2022-08-18T08:48:38.469Z,8.98
2022-08-18T08:51:51.629Z,10.50
2022-08-18T08:55:01.322Z,6.70
2022-08-18T08:58:18.569Z,11.77
2022-08-18T09:01:33.277Z,10.77
2022-08-18T09:04:57.950Z,8.93
2022-08-18T09:08:38.439Z,6.88
2022-08-18T09:12:04.906Z,4.90
2022-08-18T09:15:28.151Z,6.32
2022-08-18T09:18:59.313Z,6.78
2022-08-18T09:22:13.769Z,7.30
2022-08-18T09:25:35.811Z,6.00
2022-08-18T09:28:58.276Z,6.50
2022-08-18T09:32:33.387Z,4.30
2022-08-18T09:36:02.454Z,6.95
2022-08-18T09:39:38.061Z,4.72
2022-08-18T09:46:13.199Z,5.57
2022-08-18T09:49:47.701Z,4.70
2022-08-18T09:50:37.073Z,7.53
2022-08-18T09:53:04.601Z,13.13
2022-08-18T09:56:12.287Z,9.60
2022-08-18T10:00:02.227Z,6.35
2022-08-18T10:03:31.364Z,3.97
2022-08-18T10:06:42.954Z,10.18
2022-08-18T10:10:18.479Z,7.65
2022-08-18T10:13:49.344Z,2.17
2022-08-18T10:17:23.726Z,6.00
2022-08-18T10:20:42.642Z,13.60
2022-08-18T10:24:29.518Z,7.63
2022-08-18T10:27:51.896Z,4.47
2022-08-18T10:31:17.040Z,6.45
2022-08-18T10:34:40.816Z,5.82
2022-08-18T10:37:59.646Z,5.03
2022-08-18T10:41:15.219Z,4.00
2022-08-18T10:48:16.787Z,5.25
2022-08-18T10:51:30.594Z,7.00
2022-08-18T10:55:12.032Z,7.53
2022-08-18T10:58:40.681Z,5.80
2022-08-18T11:02:06.886Z,7.03
2022-08-18T11:05:17.483Z,3.75
2022-08-18T11:08:25.040Z,2.80
2022-08-18T11:11:40.783Z,4.10
2022-08-18T11:15:01.833Z,4.85
2022-08-18T11:18:42.837Z,4.25
2022-08-18T11:21:52.646Z,2.67
2022-08-18T11:24:57.709Z,7.55
2022-08-18T11:28:03.859Z,3.42
2022-08-18T11:31:09.774Z,2.80
2022-08-18T11:34:19.924Z,2.42
2022-08-18T11:41:23.274Z,4.10
2022-08-18T11:44:35.108Z,3.40
2022-08-18T11:47:41.321Z,4.18
2022-08-18T11:54:33.865Z,4.32
2022-08-18T11:57:56.122Z,1.75
2022-08-18T12:01:05.353Z,2.63
2022-08-18T12:04:25.727Z,3.20
2022-08-18T12:07:34.762Z,6.22
2022-08-18T12:10:42.709Z,3.72
2022-08-18T12:13:49.898Z,1.85
2022-08-18T12:16:57.247Z,2.92
2022-08-18T12:20:02.714Z,5.88
2022-08-18T12:23:08.784Z,4.38
2022-08-18T12:26:27.298Z,2.35
2022-08-18T12:29:43.749Z,3.65
2022-08-18T12:32:55.762Z,2.50
2022-08-18T12:36:07.234Z,6.82
2022-08-18T12:39:13.558Z,1.92
2022-08-18T12:42:21.940Z,3.05
2022-08-18T12:45:27.572Z,1.50
2022-08-18T12:48:33.883Z,2.38
2022-08-18T12:51:39.304Z,5.85
2022-08-18T12:54:55.853Z,3.72
2022-08-18T12:58:04.051Z,1.55
2022-08-18T13:01:10.335Z,4.38
2022-08-18T13:04:18.666Z,6.07
2022-08-18T13:07:23.773Z,4.57
2022-08-18T13:10:43.051Z,3.58
2022-08-18T13:13:56.770Z,4.32
2022-08-18T13:17:02.140Z,3.38
2022-08-18T13:20:10.744Z,4.93
2022-08-18T13:23:24.493Z,4.32
2022-08-18T13:26:32.274Z,3.25
2022-08-18T13:29:41.465Z,4.30
2022-08-18T13:33:00.705Z,4.28
2022-08-18T13:39:17.538Z,4.40
2022-08-18T13:42:29.470Z,5.00
2022-08-18T13:45:39.513Z,2.72
2022-08-18T13:48:46.082Z,5.20
2022-08-18T13:51:53.062Z,7.43
2022-08-18T13:54:58.012Z,4.53
2022-08-18T13:58:05.382Z,0.95
2022-08-18T14:01:45.085Z,5.00
2022-08-18T14:04:51.776Z,3.70
2022-08-18T14:07:56.835Z,2.08
2022-08-18T14:11:05.276Z,10.20
2022-08-18T14:14:10.437Z,2.25
2022-08-18T14:17:18.331Z,1.63
2022-08-18T14:20:37.046Z,3.63
2022-08-18T14:24:00.361Z,1.75
2022-08-18T14:27:06.208Z,1.40
2022-08-18T14:30:18.791Z,2.28
2022-08-18T14:33:34.366Z,1.15
2022-08-18T14:36:53.496Z,2.15
2022-08-18T14:40:00.801Z,3.53
2022-08-18T14:43:07.985Z,3.22
2022-08-18T14:46:13.489Z,4.30
2022-08-18T14:49:28.671Z,2.72
2022-08-18T14:52:34.394Z,5.07
2022-08-18T14:55:39.676Z,4.38
2022-08-18T14:58:45.101Z,4.15
2022-08-18T15:01:51.541Z,5.95
2022-08-18T15:04:59.142Z,4.47
2022-08-18T15:08:06.525Z,4.97
2022-08-18T15:11:16.589Z,4.32
2022-08-18T15:14:22.665Z,1.48
2022-08-18T15:17:39.189Z,4.28
2022-08-18T15:20:59.170Z,5.45
2022-08-18T15:24:19.460Z,2.63
2022-08-18T15:27:42.568Z,2.03
2022-08-18T15:30:51.114Z,3.58
2022-08-18T15:33:57.525Z,5.78
2022-08-18T15:37:09.711Z,3.83
2022-08-18T15:40:30.446Z,4.93
2022-08-18T15:43:46.160Z,4.20
2022-08-18T15:46:53.616Z,3.67
2022-08-18T15:49:58.687Z,5.78
2022-08-18T15:53:09.213Z,4.38
2022-08-18T15:56:16.564Z,4.43
2022-08-18T15:59:26.948Z,3.85
2022-08-18T16:02:48.691Z,3.40
2022-08-18T16:05:57.713Z,3.33
2022-08-18T16:09:06.469Z,6.53
2022-08-18T16:12:12.550Z,2.83
2022-08-18T16:15:19.384Z,2.55
2022-08-18T16:18:27.550Z,4.07
2022-08-18T16:21:32.481Z,2.25
2022-08-18T16:24:40.016Z,3.47
2022-08-18T16:27:47.837Z,3.78
2022-08-18T16:30:54.797Z,3.13
2022-08-18T16:34:00.583Z,2.05
2022-08-18T16:37:06.809Z,2.67
2022-08-18T16:40:15.893Z,2.10
2022-08-18T16:43:20.866Z,2.67
2022-08-18T16:46:28.450Z,10.75
2022-08-18T16:49:33.479Z,4.40
2022-08-18T16:52:38.879Z,3.05
2022-08-18T16:55:48.550Z,3.63
2022-08-18T16:59:07.183Z,2.00
2022-08-18T17:02:24.891Z,3.15
2022-08-18T17:05:29.992Z,1.30
2022-08-18T17:08:35.765Z,2.65
2022-08-18T17:11:51.382Z,2.60
2022-08-18T17:14:57.141Z,1.95
2022-08-18T17:18:03.046Z,1.35
2022-08-18T17:21:16.906Z,3.63
2022-08-18T17:24:32.167Z,3.40
2022-08-18T17:27:42.049Z,4.75
2022-08-18T17:30:54.510Z,3.53
2022-08-18T17:34:07.017Z,5.95
2022-08-18T17:37:16.436Z,4.90
2022-08-18T17:40:29.047Z,2.97
2022-08-18T17:47:07.145Z,2.83
2022-08-18T17:50:37.446Z,2.58
2022-08-18T17:53:42.742Z,4.45
2022-08-18T17:56:52.621Z,3.15
2022-08-18T18:00:08.130Z,3.28
2022-08-18T18:03:20.441Z,6.50
2022-08-18T18:06:33.813Z,3.63
2022-08-18T18:09:38.762Z,1.83
2022-08-18T18:12:44.258Z,3.42
2022-08-18T18:15:53.758Z,3.80
2022-08-18T18:19:03.335Z,5.07
2022-08-18T18:22:11.618Z,4.25
2022-08-18T18:25:34.795Z,2.15
2022-08-18T18:28:39.878Z,2.25
2022-08-18T18:31:49.742Z,4.15
2022-08-18T18:35:09.853Z,3.38
2022-08-18T18:38:28.975Z,2.53
2022-08-18T18:41:38.012Z,4.95
2022-08-18T18:44:54.393Z,5.85
2022-08-18T18:48:08.542Z,3.60
2022-08-18T18:51:40.521Z,8.00
2022-08-18T18:54:59.047Z,5.03
2022-08-18T18:58:15.723Z,3.72
2022-08-18T19:01:28.887Z,7.07
2022-08-18T19:04:40.098Z,1.57
2022-08-18T19:07:55.908Z,3.42
2022-08-18T19:11:06.669Z,6.68
2022-08-18T19:14:21.731Z,4.22
2022-08-18T19:17:34.802Z,4.85
2022-08-18T19:22:01.675Z,3.28
2022-08-18T19:24:18.414Z,5.78
2022-08-18T19:27:35.872Z,3.67
2022-08-18T19:30:45.193Z,3.28
2022-08-18T19:33:53.815Z,8.13
2022-08-18T19:37:06.001Z,11.88
2022-08-18T19:40:19.331Z,3.53
2022-08-18T19:43:35.979Z,4.63
2022-08-18T19:46:46.021Z,4.93
2022-08-18T19:49:59.186Z,4.20
2022-08-18T19:53:21.423Z,4.30
2022-08-18T19:56:43.785Z,6.60
2022-08-18T20:00:12.736Z,5.65
2022-08-18T20:03:42.897Z,9.70
2022-08-18T20:07:03.914Z,7.05
2022-08-18T20:10:34.373Z,5.10
2022-08-18T20:13:43.511Z,6.63
2022-08-18T20:17:19.014Z,8.27
2022-08-18T20:20:25.375Z,3.13
2022-08-18T20:23:37.661Z,4.90
2022-08-18T20:26:51.842Z,6.45
2022-08-18T20:30:19.292Z,8.30
2022-08-18T20:33:33.820Z,6.28
2022-08-18T20:36:42.769Z,5.35
2022-08-18T20:39:52.531Z,7.35
2022-08-18T20:43:07.244Z,4.50
2022-08-18T20:46:35.121Z,5.47
2022-08-18T20:49:54.277Z,5.07
2022-08-18T20:53:08.842Z,6.13
2022-08-18T20:56:32.093Z,5.28
2022-08-18T20:59:50.369Z,4.85
2022-08-18T21:02:58.033Z,8.20
2022-08-18T21:06:03.246Z,16.58
2022-08-18T21:09:08.483Z,14.05
2022-08-18T21:12:14.729Z,9.45
2022-08-18T21:15:24.424Z,11.55
2022-08-18T21:18:30.382Z,10.15
2022-08-18T21:21:39.197Z,6.50
2022-08-18T21:24:49.969Z,7.05
2022-08-18T21:27:55.827Z,7.05
2022-08-18T21:31:42.966Z,7.60
2022-08-18T21:34:35.636Z,7.60
2022-08-18T21:37:43.892Z,9.05
2022-08-18T21:40:51.472Z,5.93
2022-08-18T21:44:03.221Z,9.55
2022-08-18T21:47:20.490Z,6.85
2022-08-18T21:50:29.295Z,6.15
2022-08-18T21:53:38.353Z,5.05
2022-08-18T21:56:43.307Z,7.45
2022-08-18T22:00:20.312Z,6.80
2022-08-18T22:03:29.206Z,5.03
2022-08-18T22:06:41.277Z,5.03
2022-08-18T22:10:14.947Z,6.70
2022-08-18T22:13:35.794Z,7.97
2022-08-18T22:16:40.815Z,7.80
2022-08-18T22:19:49.242Z,4.07
2022-08-18T22:23:06.695Z,8.05
2022-08-18T22:26:15.335Z,7.25
2022-08-18T22:29:34.146Z,4.85
2022-08-18T22:32:45.682Z,5.45
2022-08-18T22:35:59.076Z,4.57
2022-08-18T22:39:04.487Z,7.75
2022-08-18T22:42:13.762Z,4.90
2022-08-18T22:45:19.729Z,4.50
2022-08-18T22:48:25.603Z,5.40
2022-08-18T22:51:36.309Z,6.30
2022-08-18T22:54:41.341Z,8.02
2022-08-18T22:57:48.611Z,6.78
2022-08-18T23:00:53.535Z,8.02
2022-08-18T23:04:06.655Z,5.00
2022-08-18T23:07:14.784Z,7.97
2022-08-18T23:10:20.091Z,6.38
2022-08-18T23:13:27.003Z,6.43
2022-08-18T23:16:32.627Z,7.95
2022-08-18T23:19:37.568Z,5.43
2022-08-18T23:22:45.549Z,7.88
2022-08-18T23:25:51.569Z,4.97
2022-08-18T23:28:56.507Z,5.75
2022-08-18T23:32:01.431Z,5.03
2022-08-18T23:35:07.278Z,6.00
2022-08-18T23:38:15.834Z,7.57
2022-08-18T23:41:21.274Z,6.75
2022-08-18T23:44:28.184Z,9.35
2022-08-18T23:47:33.231Z,8.48
2022-08-18T23:50:42.102Z,7.70
2022-08-18T23:53:51.741Z,7.70
2022-08-18T23:56:56.700Z,6.38
